sensor_id;sensor_type;location;lat;lon;timestamp;pressure;altitude;pressure_sealevel;temperature;humidity
5703;BME280;2876;51.738;10.050;2024-03-08T00:03:59;99748.31;;;0.43;89.88
5703;BME280;2876;51.738;10.050;2024-03-08T00:10:03;99748.00;;;0.25;90.76
5703;BME280;2876;51.738;10.050;2024-03-08T00:16:05;99735.78;;;0.13;91.61
5703;BME280;2876;51.738;10.050;2024-03-08T00:22:07;99734.97;;;0.13;91.33
5703;BME280;2876;51.738;10.050;2024-03-08T00:28:09;99730.41;;;0.15;91.31
5703;BME280;2876;51.738;10.050;2024-03-08T00:34:15;99721.41;;;0.17;91.43
5703;BME280;2876;51.738;10.050;2024-03-08T00:40:17;99723.22;;;0.17;91.01
5703;BME280;2876;51.738;10.050;2024-03-08T00:46:19;99718.91;;;0.16;91.68
5703;BME280;2876;51.738;10.050;2024-03-08T00:52:21;99711.22;;;0.13;91.33
5703;BME280;2876;51.738;10.050;2024-03-08T00:58:25;99703.00;;;0.06;91.65
5703;BME280;2876;51.738;10.050;2024-03-08T01:04:27;99700.59;;;0.03;91.47
5703;BME280;2876;51.738;10.050;2024-03-08T01:10:32;99694.97;;;-0.04;91.79
5703;BME280;2876;51.738;10.050;2024-03-08T01:16:34;99685.66;;;-0.08;91.98
5703;BME280;2876;51.738;10.050;2024-03-08T01:22:36;99679.06;;;-0.13;91.69
5703;BME280;2876;51.738;10.050;2024-03-08T01:28:38;99675.25;;;-0.20;91.87
5703;BME280;2876;51.738;10.050;2024-03-08T01:34:40;99661.38;;;-0.45;92.11
5703;BME280;2876;51.738;10.050;2024-03-08T01:40:42;99656.47;;;-0.38;94.09
5703;BME280;2876;51.738;10.050;2024-03-08T01:46:45;99639.44;;;-0.34;93.50
5703;BME280;2876;51.738;10.050;2024-03-08T01:52:47;99633.94;;;-0.31;93.19
5703;BME280;2876;51.738;10.050;2024-03-08T01:58:49;99629.19;;;-0.48;93.07
5703;BME280;2876;51.738;10.050;2024-03-08T02:04:51;99622.25;;;-0.49;93.15
5703;BME280;2876;51.738;10.050;2024-03-08T02:10:55;99607.75;;;-0.55;93.38
5703;BME280;2876;51.738;10.050;2024-03-08T02:17:01;99606.31;;;-0.59;92.76
5703;BME280;2876;51.738;10.050;2024-03-08T02:23:03;99595.78;;;-0.70;93.59
5703;BME280;2876;51.738;10.050;2024-03-08T02:29:05;99597.19;;;-0.55;94.06
5703;BME280;2876;51.738;10.050;2024-03-08T02:35:07;99582.59;;;-0.48;94.20
5703;BME280;2876;51.738;10.050;2024-03-08T02:41:11;99571.31;;;-0.50;93.96
5703;BME280;2876;51.738;10.050;2024-03-08T02:47:14;99569.78;;;-0.53;93.91
5703;BME280;2876;51.738;10.050;2024-03-08T02:53:16;99561.75;;;-0.40;93.84
5703;BME280;2876;51.738;10.050;2024-03-08T02:59:18;99558.66;;;-0.45;93.48
5703;BME280;2876;51.738;10.050;2024-03-08T03:05:21;99557.19;;;-0.38;93.31
5703;BME280;2876;51.738;10.050;2024-03-08T03:11:23;99546.47;;;-0.25;92.98
5703;BME280;2876;51.738;10.050;2024-03-08T03:17:26;99546.94;;;-0.20;92.50
5703;BME280;2876;51.738;10.050;2024-03-08T03:23:28;99546.81;;;-0.18;92.25
5703;BME280;2876;51.738;10.050;2024-03-08T03:29:35;99536.81;;;-0.04;91.07
5703;BME280;2876;51.738;10.050;2024-03-08T03:35:37;99532.88;;;-0.09;91.00
5703;BME280;2876;51.738;10.050;2024-03-08T03:41:40;99534.00;;;-0.23;90.78
5703;BME280;2876;51.738;10.050;2024-03-08T03:47:43;99531.88;;;-0.29;90.84
5703;BME280;2876;51.738;10.050;2024-03-08T03:53:45;99527.44;;;-0.29;90.60
5703;BME280;2876;51.738;10.050;2024-03-08T03:59:47;99528.25;;;-0.17;90.50
5703;BME280;2876;51.738;10.050;2024-03-08T04:05:49;99528.78;;;-0.02;90.96
5703;BME280;2876;51.738;10.050;2024-03-08T04:11:52;99529.78;;;-0.14;90.70
5703;BME280;2876;51.738;10.050;2024-03-08T04:17:57;99530.91;;;-0.28;90.94
5703;BME280;2876;51.738;10.050;2024-03-08T04:23:59;99528.19;;;-0.38;90.33
5703;BME280;2876;51.738;10.050;2024-03-08T04:30:05;99513.56;;;-0.63;91.22
5703;BME280;2876;51.738;10.050;2024-03-08T04:36:10;99508.66;;;-0.67;91.23
5703;BME280;2876;51.738;10.050;2024-03-08T04:42:15;99511.28;;;-0.67;91.47
5703;BME280;2876;51.738;10.050;2024-03-08T04:48:20;99514.13;;;-0.59;91.61
5703;BME280;2876;51.738;10.050;2024-03-08T04:54:22;99508.16;;;-0.61;91.81
5703;BME280;2876;51.738;10.050;2024-03-08T05:00:24;99509.00;;;-0.61;91.83
5703;BME280;2876;51.738;10.050;2024-03-08T05:06:27;99507.09;;;-0.59;91.32
5703;BME280;2876;51.738;10.050;2024-03-08T05:12:29;99496.50;;;-0.47;91.25
5703;BME280;2876;51.738;10.050;2024-03-08T05:18:31;99493.72;;;-0.46;92.02
5703;BME280;2876;51.738;10.050;2024-03-08T05:24:34;99496.78;;;-0.62;91.11
5703;BME280;2876;51.738;10.050;2024-03-08T05:30:38;99496.06;;;-0.64;91.84
5703;BME280;2876;51.738;10.050;2024-03-08T05:36:41;99496.38;;;-0.46;92.63
5703;BME280;2876;51.738;10.050;2024-03-08T05:42:46;99489.88;;;-0.63;92.90
5703;BME280;2876;51.738;10.050;2024-03-08T05:48:48;99494.03;;;-0.60;94.10
5703;BME280;2876;51.738;10.050;2024-03-08T05:54:51;99495.38;;;-0.34;93.56
5703;BME280;2876;51.738;10.050;2024-03-08T06:00:53;99494.91;;;-0.39;93.15
5703;BME280;2876;51.738;10.050;2024-03-08T06:06:55;99494.69;;;-0.36;92.77
5703;BME280;2876;51.738;10.050;2024-03-08T06:12:58;99490.94;;;-0.33;92.50
5703;BME280;2876;51.738;10.050;2024-03-08T06:19:01;99499.34;;;-0.39;91.91
5703;BME280;2876;51.738;10.050;2024-03-08T06:25:04;99498.38;;;-0.38;91.58
5703;BME280;2876;51.738;10.050;2024-03-08T06:31:07;99493.16;;;-0.49;91.54
5703;BME280;2876;51.738;10.050;2024-03-08T06:37:09;99498.53;;;-0.40;91.36
5703;BME280;2876;51.738;10.050;2024-03-08T06:43:11;99497.88;;;-0.32;92.37
5703;BME280;2876;51.738;10.050;2024-03-08T06:49:16;99496.72;;;0.14;92.14
5703;BME280;2876;51.738;10.050;2024-03-08T06:55:18;99509.19;;;0.33;91.71
5703;BME280;2876;51.738;10.050;2024-03-08T07:01:20;99502.13;;;0.64;90.67
5703;BME280;2876;51.738;10.050;2024-03-08T07:07:23;99498.38;;;0.66;90.06
5703;BME280;2876;51.738;10.050;2024-03-08T07:13:25;99489.03;;;0.93;89.65
5703;BME280;2876;51.738;10.050;2024-03-08T07:19:27;99502.50;;;0.99;89.19
5703;BME280;2876;51.738;10.050;2024-03-08T07:25:29;99497.31;;;1.19;88.75
5703;BME280;2876;51.738;10.050;2024-03-08T07:31:31;99483.41;;;1.36;87.44
5703;BME280;2876;51.738;10.050;2024-03-08T07:37:39;99487.19;;;1.34;88.79
5703;BME280;2876;51.738;10.050;2024-03-08T07:43:41;99482.31;;;1.48;88.48
5703;BME280;2876;51.738;10.050;2024-03-08T07:49:44;99465.94;;;1.64;89.01
5703;BME280;2876;51.738;10.050;2024-03-08T07:55:46;99469.81;;;1.89;88.91
5703;BME280;2876;51.738;10.050;2024-03-08T08:01:48;99463.91;;;2.24;89.83
5703;BME280;2876;51.738;10.050;2024-03-08T08:07:50;99461.59;;;3.49;88.89
5703;BME280;2876;51.738;10.050;2024-03-08T08:13:54;99457.13;;;5.56;78.50
5703;BME280;2876;51.738;10.050;2024-03-08T08:19:56;99459.78;;;9.64;65.97
5703;BME280;2876;51.738;10.050;2024-03-08T08:25:58;99472.03;;;13.01;55.86
5703;BME280;2876;51.738;10.050;2024-03-08T08:32:01;99475.63;;;14.85;48.39
5703;BME280;2876;51.738;10.050;2024-03-08T08:38:05;99486.03;;;13.75;48.67
5703;BME280;2876;51.738;10.050;2024-03-08T08:44:07;99474.19;;;12.06;49.58
5703;BME280;2876;51.738;10.050;2024-03-08T08:50:18;99456.75;;;11.76;51.23
5703;BME280;2876;51.738;10.050;2024-03-08T08:56:25;99448.34;;;11.17;52.66
5703;BME280;2876;51.738;10.050;2024-03-08T09:02:27;99437.50;;;11.52;52.31
5703;BME280;2876;51.738;10.050;2024-03-08T09:08:29;99439.00;;;11.75;49.69
5703;BME280;2876;51.738;10.050;2024-03-08T09:14:34;99420.66;;;12.18;49.59
5703;BME280;2876;51.738;10.050;2024-03-08T09:20:36;99408.31;;;12.82;48.93
5703;BME280;2876;51.738;10.050;2024-03-08T09:26:38;99402.94;;;15.02;43.02
5703;BME280;2876;51.738;10.050;2024-03-08T09:32:44;99399.53;;;14.94;42.77
5703;BME280;2876;51.738;10.050;2024-03-08T09:38:46;99390.34;;;14.95;42.42
5703;BME280;2876;51.738;10.050;2024-03-08T09:44:49;99383.41;;;18.15;37.21
5703;BME280;2876;51.738;10.050;2024-03-08T09:50:51;99381.44;;;19.54;34.41
5703;BME280;2876;51.738;10.050;2024-03-08T09:56:53;99364.22;;;20.07;32.82
5703;BME280;2876;51.738;10.050;2024-03-08T10:03:01;99372.63;;;21.73;30.89
5703;BME280;2876;51.738;10.050;2024-03-08T10:09:03;99362.00;;;22.28;29.12
5703;BME280;2876;51.738;10.050;2024-03-08T10:15:08;99344.97;;;22.67;29.57
5703;BME280;2876;51.738;10.050;2024-03-08T10:21:11;99336.28;;;22.44;28.44
5703;BME280;2876;51.738;10.050;2024-03-08T10:27:13;99322.09;;;23.51;27.98
5703;BME280;2876;51.738;10.050;2024-03-08T10:33:15;99316.91;;;22.10;28.54
5703;BME280;2876;51.738;10.050;2024-03-08T10:39:25;99306.91;;;20.29;31.24
5703;BME280;2876;51.738;10.050;2024-03-08T10:45:38;99294.19;;;17.85;34.89
5703;BME280;2876;51.738;10.050;2024-03-08T10:51:45;99282.38;;;18.51;35.74
5703;BME280;2876;51.738;10.050;2024-03-08T10:57:49;99270.06;;;20.74;32.03
5703;BME280;2876;51.738;10.050;2024-03-08T11:03:51;99256.81;;;21.23;31.10
5703;BME280;2876;51.738;10.050;2024-03-08T11:09:56;99257.34;;;21.05;30.76
5703;BME280;2876;51.738;10.050;2024-03-08T11:15:59;99241.22;;;22.26;29.14
5703;BME280;2876;51.738;10.050;2024-03-08T11:22:03;99235.28;;;21.83;29.60
5703;BME280;2876;51.738;10.050;2024-03-08T11:34:19;99220.84;;;22.63;28.40
5703;BME280;2876;51.738;10.050;2024-03-08T11:40:21;99209.28;;;22.01;29.12
5703;BME280;2876;51.738;10.050;2024-03-08T11:46:24;99207.44;;;23.06;27.87
5703;BME280;2876;51.738;10.050;2024-03-08T11:52:30;99202.97;;;22.26;29.14
5703;BME280;2876;51.738;10.050;2024-03-08T11:58:32;99201.66;;;22.68;28.86
5703;BME280;2876;51.738;10.050;2024-03-08T12:04:34;99178.41;;;22.06;28.88
5703;BME280;2876;51.738;10.050;2024-03-08T12:10:38;99176.75;;;22.15;28.70
5703;BME280;2876;51.738;10.050;2024-03-08T12:16:41;99175.75;;;22.55;27.73
5703;BME280;2876;51.738;10.050;2024-03-08T12:22:45;99169.75;;;21.78;28.58
5703;BME280;2876;51.738;10.050;2024-03-08T12:28:47;99166.81;;;21.34;29.07
5703;BME280;2876;51.738;10.050;2024-03-08T12:34:53;99147.56;;;20.42;30.68
5703;BME280;2876;51.738;10.050;2024-03-08T12:40:59;99136.44;;;21.66;30.47
5703;BME280;2876;51.738;10.050;2024-03-08T12:47:03;99125.59;;;22.70;28.71
5703;BME280;2876;51.738;10.050;2024-03-08T12:53:06;99123.56;;;23.54;27.76
5703;BME280;2876;51.738;10.050;2024-03-08T12:59:09;99121.81;;;23.63;27.56
5703;BME280;2876;51.738;10.050;2024-03-08T13:05:12;99109.38;;;22.44;28.17
5703;BME280;2876;51.738;10.050;2024-03-08T13:11:16;99097.88;;;22.47;29.41
5703;BME280;2876;51.738;10.050;2024-03-08T13:17:18;99085.78;;;23.27;28.17
5703;BME280;2876;51.738;10.050;2024-03-08T13:23:21;99082.53;;;23.20;29.06
5703;BME280;2876;51.738;10.050;2024-03-08T13:29:23;99080.72;;;23.10;28.71
5703;BME280;2876;51.738;10.050;2024-03-08T13:35:24;99061.13;;;21.60;29.32
5703;BME280;2876;51.738;10.050;2024-03-08T13:41:28;99053.75;;;22.64;28.41
5703;BME280;2876;51.738;10.050;2024-03-08T13:47:33;99051.31;;;23.21;28.38
5703;BME280;2876;51.738;10.050;2024-03-08T13:53:35;99039.09;;;23.61;28.64
5703;BME280;2876;51.738;10.050;2024-03-08T13:59:37;99034.50;;;24.75;26.85
5703;BME280;2876;51.738;10.050;2024-03-08T14:05:40;99032.91;;;25.48;26.12
5703;BME280;2876;51.738;10.050;2024-03-08T14:11:43;99026.31;;;25.90;25.77
5703;BME280;2876;51.738;10.050;2024-03-08T14:17:55;99019.09;;;25.80;25.81
5703;BME280;2876;51.738;10.050;2024-03-08T14:23:59;99014.81;;;25.47;26.33
5703;BME280;2876;51.738;10.050;2024-03-08T14:30:01;99006.69;;;25.55;26.23
5703;BME280;2876;51.738;10.050;2024-03-08T14:36:05;98994.81;;;24.86;26.80
5703;BME280;2876;51.738;10.050;2024-03-08T14:42:08;98987.97;;;23.81;28.20
5703;BME280;2876;51.738;10.050;2024-03-08T14:48:15;98979.38;;;23.44;28.91
5703;BME280;2876;51.738;10.050;2024-03-08T14:54:17;98969.94;;;22.78;28.82
5703;BME280;2876;51.738;10.050;2024-03-08T15:00:22;98966.78;;;22.95;28.92
5703;BME280;2876;51.738;10.050;2024-03-08T15:06:38;98954.91;;;23.05;27.85
5703;BME280;2876;51.738;10.050;2024-03-08T15:12:40;98960.78;;;22.93;28.70
5703;BME280;2876;51.738;10.050;2024-03-08T15:18:42;98939.13;;;23.45;27.63
5703;BME280;2876;51.738;10.050;2024-03-08T15:24:53;98942.88;;;23.30;28.14
5703;BME280;2876;51.738;10.050;2024-03-08T15:30:55;98927.34;;;23.44;27.56
5703;BME280;2876;51.738;10.050;2024-03-08T15:37:06;98927.38;;;22.96;28.32
5703;BME280;2876;51.738;10.050;2024-03-08T15:43:08;98911.31;;;21.92;30.00
5703;BME280;2876;51.738;10.050;2024-03-08T15:49:11;98915.28;;;21.21;30.11
5703;BME280;2876;51.738;10.050;2024-03-08T15:55:15;98892.13;;;21.09;29.97
5703;BME280;2876;51.738;10.050;2024-03-08T16:01:21;98899.56;;;20.88;30.92
5703;BME280;2876;51.738;10.050;2024-03-08T16:07:24;98893.13;;;20.33;31.51
5703;BME280;2876;51.738;10.050;2024-03-08T16:13:27;98890.88;;;19.58;32.28
5703;BME280;2876;51.738;10.050;2024-03-08T16:19:29;98894.38;;;18.75;34.27
5703;BME280;2876;51.738;10.050;2024-03-08T16:25:34;98889.69;;;17.91;35.82
5703;BME280;2876;51.738;10.050;2024-03-08T16:31:40;98882.97;;;17.72;36.74
5703;BME280;2876;51.738;10.050;2024-03-08T16:37:43;98879.06;;;16.87;37.83
5703;BME280;2876;51.738;10.050;2024-03-08T16:43:45;98878.34;;;15.68;40.44
5703;BME280;2876;51.738;10.050;2024-03-08T16:49:47;98875.66;;;13.29;45.59
5703;BME280;2876;51.738;10.050;2024-03-08T16:55:49;98870.25;;;11.68;50.68
5703;BME280;2876;51.738;10.050;2024-03-08T17:01:53;98873.13;;;10.46;54.24
5703;BME280;2876;51.738;10.050;2024-03-08T17:08:01;98869.03;;;9.70;56.65
5703;BME280;2876;51.738;10.050;2024-03-08T17:14:07;98862.19;;;9.28;59.82
5703;BME280;2876;51.738;10.050;2024-03-08T17:20:12;98852.97;;;8.69;61.51
5703;BME280;2876;51.738;10.050;2024-03-08T17:26:21;98839.94;;;8.25;63.96
5703;BME280;2876;51.738;10.050;2024-03-08T17:32:24;98832.88;;;8.10;64.31
5703;BME280;2876;51.738;10.050;2024-03-08T17:38:26;98834.44;;;7.98;65.31
5703;BME280;2876;51.738;10.050;2024-03-08T17:44:30;98814.31;;;7.68;66.13
5703;BME280;2876;51.738;10.050;2024-03-08T17:50:35;98813.31;;;7.47;67.26
5703;BME280;2876;51.738;10.050;2024-03-08T17:56:38;98816.56;;;7.43;67.31
5703;BME280;2876;51.738;10.050;2024-03-08T18:08:46;98804.56;;;7.10;68.45
5703;BME280;2876;51.738;10.050;2024-03-08T18:14:48;98797.34;;;7.04;68.71
5703;BME280;2876;51.738;10.050;2024-03-08T18:20:50;98799.47;;;7.16;67.99
5703;BME280;2876;51.738;10.050;2024-03-08T18:26:52;98788.94;;;7.07;68.52
5703;BME280;2876;51.738;10.050;2024-03-08T18:33:01;98789.34;;;7.04;68.43
5703;BME280;2876;51.738;10.050;2024-03-08T18:39:04;98783.88;;;6.91;69.31
5703;BME280;2876;51.738;10.050;2024-03-08T18:45:07;98781.63;;;6.95;69.36
5703;BME280;2876;51.738;10.050;2024-03-08T18:51:12;98778.53;;;6.91;69.75
5703;BME280;2876;51.738;10.050;2024-03-08T18:57:15;98773.94;;;6.64;70.25
5703;BME280;2876;51.738;10.050;2024-03-08T19:03:17;98758.59;;;6.66;70.45
5703;BME280;2876;51.738;10.050;2024-03-08T19:09:19;98764.91;;;6.28;71.05
5703;BME280;2876;51.738;10.050;2024-03-08T19:15:22;98761.44;;;6.28;72.12
5703;BME280;2876;51.738;10.050;2024-03-08T19:21:24;98762.28;;;5.99;74.06
5703;BME280;2876;51.738;10.050;2024-03-08T19:27:26;98758.22;;;5.73;74.50
5703;BME280;2876;51.738;10.050;2024-03-08T19:33:28;98757.00;;;5.61;75.91
5703;BME280;2876;51.738;10.050;2024-03-08T19:39:34;98757.56;;;5.56;75.82
5703;BME280;2876;51.738;10.050;2024-03-08T19:45:39;98750.50;;;5.64;76.64
5703;BME280;2876;51.738;10.050;2024-03-08T19:51:42;98752.16;;;5.50;76.56
5703;BME280;2876;51.738;10.050;2024-03-08T19:57:44;98740.03;;;5.47;76.88
5703;BME280;2876;51.738;10.050;2024-03-08T20:03:52;98727.34;;;5.34;77.24
5703;BME280;2876;51.738;10.050;2024-03-08T20:09:55;98732.41;;;5.44;76.95
5703;BME280;2876;51.738;10.050;2024-03-08T20:15:57;98733.28;;;5.22;78.73
5703;BME280;2876;51.738;10.050;2024-03-08T20:21:59;98724.72;;;5.12;78.62
5703;BME280;2876;51.738;10.050;2024-03-08T20:28:03;98720.84;;;5.22;78.30
5703;BME280;2876;51.738;10.050;2024-03-08T20:34:07;98707.56;;;5.37;77.66
5703;BME280;2876;51.738;10.050;2024-03-08T20:40:11;98701.63;;;5.50;77.05
5703;BME280;2876;51.738;10.050;2024-03-08T20:46:13;98705.28;;;5.78;76.48
5703;BME280;2876;51.738;10.050;2024-03-08T20:52:17;98696.38;;;5.56;77.01
5703;BME280;2876;51.738;10.050;2024-03-08T20:58:20;98689.66;;;5.31;77.95
5703;BME280;2876;51.738;10.050;2024-03-08T21:04:24;98690.00;;;5.13;77.84
5703;BME280;2876;51.738;10.050;2024-03-08T21:10:28;98681.84;;;5.00;78.36
5703;BME280;2876;51.738;10.050;2024-03-08T21:16:33;98671.47;;;4.67;79.72
5703;BME280;2876;51.738;10.050;2024-03-08T21:22:35;98668.91;;;4.59;79.78
5703;BME280;2876;51.738;10.050;2024-03-08T21:28:37;98655.13;;;4.78;80.29
5703;BME280;2876;51.738;10.050;2024-03-08T21:34:40;98650.09;;;4.83;80.53
5703;BME280;2876;51.738;10.050;2024-03-08T21:40:42;98648.81;;;4.94;80.73
5703;BME280;2876;51.738;10.050;2024-03-08T21:46:47;98634.38;;;4.97;81.10
5703;BME280;2876;51.738;10.050;2024-03-08T21:52:50;98628.84;;;4.83;81.33
5703;BME280;2876;51.738;10.050;2024-03-08T21:58:52;98628.22;;;4.96;81.12
5703;BME280;2876;51.738;10.050;2024-03-08T22:04:54;98627.06;;;4.76;81.73
5703;BME280;2876;51.738;10.050;2024-03-08T22:10:56;98611.38;;;4.51;82.29
5703;BME280;2876;51.738;10.050;2024-03-08T22:16:58;98610.59;;;4.43;83.68
5703;BME280;2876;51.738;10.050;2024-03-08T22:23:01;98610.78;;;4.41;84.03
5703;BME280;2876;51.738;10.050;2024-03-08T22:29:04;98607.53;;;4.31;83.57
5703;BME280;2876;51.738;10.050;2024-03-08T22:35:07;98615.81;;;3.82;84.93
5703;BME280;2876;51.738;10.050;2024-03-08T22:41:09;98607.53;;;3.77;85.77
5703;BME280;2876;51.738;10.050;2024-03-08T22:47:13;98609.06;;;3.71;85.43
5703;BME280;2876;51.738;10.050;2024-03-08T22:53:15;98607.88;;;3.82;87.34
5703;BME280;2876;51.738;10.050;2024-03-08T22:59:18;98608.47;;;3.92;87.10
5703;BME280;2876;51.738;10.050;2024-03-08T23:05:23;98602.13;;;3.70;87.71
5703;BME280;2876;51.738;10.050;2024-03-08T23:11:31;98614.16;;;3.81;88.19
5703;BME280;2876;51.738;10.050;2024-03-08T23:17:47;98603.75;;;4.02;88.75
5703;BME280;2876;51.738;10.050;2024-03-08T23:23:54;98603.91;;;3.78;88.94
5703;BME280;2876;51.738;10.050;2024-03-08T23:29:55;98595.13;;;3.77;88.61
5703;BME280;2876;51.738;10.050;2024-03-08T23:35:58;98599.16;;;3.65;88.69
5703;BME280;2876;51.738;10.050;2024-03-08T23:42:00;98595.50;;;3.66;90.06
5703;BME280;2876;51.738;10.050;2024-03-08T23:48:02;98587.81;;;3.79;90.05
5703;BME280;2876;51.738;10.050;2024-03-08T23:54:04;98596.94;;;3.77;90.52
